createdAt,value
2022-11-29T00:00:16.526Z,87.49
2022-11-29T00:05:39.374Z,87.81
2022-11-29T00:10:42.363Z,87.85
2022-11-29T00:15:45.190Z,87.69
2022-11-29T00:20:47.940Z,86.92
2022-11-29T00:25:50.691Z,86.63
2022-11-29T00:30:53.553Z,86.53
2022-11-29T00:36:01.516Z,86.50
2022-11-29T00:41:04.949Z,86.18
2022-11-29T00:46:08.871Z,86.27
2022-11-29T00:51:11.951Z,86.03
2022-11-29T00:56:14.737Z,86.14
2022-11-29T01:01:17.635Z,86.03
2022-11-29T01:06:20.552Z,85.37
2022-11-29T01:11:25.730Z,85.20
2022-11-29T01:16:30.658Z,84.85
2022-11-29T01:21:33.493Z,84.52
2022-11-29T01:26:36.285Z,84.79
2022-11-29T01:31:39.335Z,84.95
2022-11-29T01:36:42.110Z,84.86
2022-11-29T01:41:44.926Z,84.90
2022-11-29T01:46:49.629Z,85.10
2022-11-29T01:51:59.142Z,85.13
2022-11-29T01:57:05.713Z,84.55
2022-11-29T02:02:18.374Z,84.68
2022-11-29T02:07:21.274Z,84.77
2022-11-29T02:12:36.228Z,85.04
2022-11-29T02:18:03.919Z,84.93
2022-11-29T02:23:15.862Z,85.04
2022-11-29T02:28:41.651Z,85.26
2022-11-29T02:33:49.449Z,85.30
2022-11-29T02:39:07.217Z,85.56
2022-11-29T02:44:30.989Z,85.10
2022-11-29T02:49:48.673Z,85.36
2022-11-29T02:54:58.459Z,85.29
2022-11-29T03:00:13.555Z,85.47
2022-11-29T03:05:37.066Z,85.50
2022-11-29T03:11:37.143Z,85.63
2022-11-29T03:16:59.133Z,85.76
2022-11-29T03:22:19.523Z,85.93
2022-11-29T03:27:36.398Z,85.87
2022-11-29T03:32:45.017Z,85.71
2022-11-29T03:38:06.296Z,85.99
2022-11-29T03:43:36.144Z,85.85
2022-11-29T03:48:54.223Z,85.94
2022-11-29T03:54:25.727Z,85.92
2022-11-29T04:00:01.842Z,86.03
2022-11-29T04:05:19.768Z,85.97
2022-11-29T04:10:44.646Z,86.03
2022-11-29T04:16:04.357Z,86.09
2022-11-29T04:21:41.258Z,86.03
2022-11-29T04:26:43.893Z,86.04
2022-11-29T04:32:02.770Z,85.97
2022-11-29T04:37:33.647Z,86.37
2022-11-29T04:43:12.153Z,86.60
2022-11-29T04:48:26.954Z,86.73
2022-11-29T04:53:56.708Z,86.90
2022-11-29T04:59:07.641Z,86.79
2022-11-29T05:04:39.069Z,86.90
2022-11-29T05:10:00.875Z,87.31
2022-11-29T05:15:58.012Z,87.14
2022-11-29T05:21:14.323Z,87.21
2022-11-29T05:26:32.562Z,87.37
2022-11-29T05:32:21.214Z,87.40
2022-11-29T05:37:47.795Z,87.43
2022-11-29T05:43:02.350Z,87.60
2022-11-29T05:48:24.385Z,87.59
2022-11-29T05:54:08.151Z,87.42
2022-11-29T05:59:19.357Z,87.40
2022-11-29T06:04:33.253Z,87.31
2022-11-29T06:09:48.165Z,87.40
2022-11-29T06:15:28.511Z,87.13
2022-11-29T06:21:02.025Z,86.90
2022-11-29T06:26:29.218Z,86.66
2022-11-29T06:31:38.525Z,86.83
2022-11-29T06:37:09.791Z,86.76
2022-11-29T06:42:12.595Z,86.59
2022-11-29T06:47:54.455Z,86.35
2022-11-29T06:53:21.839Z,86.35
2022-11-29T06:58:49.323Z,86.25
2022-11-29T07:04:17.731Z,85.89
2022-11-29T07:09:25.394Z,85.48
2022-11-29T07:14:28.524Z,85.59
2022-11-29T07:19:46.034Z,85.28
2022-11-29T07:25:17.504Z,85.52
2022-11-29T07:30:30.298Z,84.97
2022-11-29T07:35:47.838Z,85.06
2022-11-29T07:41:23.599Z,85.71
2022-11-29T07:46:28.780Z,87.79
2022-11-29T07:51:34.675Z,87.62
2022-11-29T07:56:37.451Z,86.42
2022-11-29T08:01:41.013Z,85.79
2022-11-29T08:06:43.873Z,85.17
2022-11-29T08:11:46.723Z,86.36
2022-11-29T08:16:49.782Z,84.34
2022-11-29T08:21:55.168Z,83.54
2022-11-29T08:26:58.013Z,84.17
2022-11-29T08:32:01.057Z,82.19
2022-11-29T08:37:04.026Z,82.33
2022-11-29T08:42:09.012Z,81.89
2022-11-29T08:47:30.355Z,83.27
2022-11-29T08:52:56.908Z,82.76
2022-11-29T08:58:14.462Z,81.26
2022-11-29T09:03:36.377Z,80.75
2022-11-29T09:08:39.742Z,79.24
2022-11-29T09:13:44.984Z,80.23
2022-11-29T09:18:52.375Z,80.22
2022-11-29T09:23:59.347Z,80.72
2022-11-29T09:29:04.967Z,80.85
2022-11-29T09:34:07.832Z,80.72
2022-11-29T09:39:14.483Z,81.30
2022-11-29T09:44:30.613Z,80.98
2022-11-29T09:49:46.726Z,80.52
2022-11-29T09:54:58.392Z,80.82
2022-11-29T10:00:09.293Z,80.85
2022-11-29T10:05:21.343Z,80.93
2022-11-29T10:10:38.018Z,80.96
2022-11-29T10:15:44.375Z,81.28
2022-11-29T10:20:49.873Z,81.23
2022-11-29T10:25:55.223Z,81.27
2022-11-29T10:31:17.769Z,81.19
2022-11-29T10:36:40.907Z,81.78
2022-11-29T10:41:43.996Z,81.24
2022-11-29T10:46:47.024Z,81.08
2022-11-29T10:51:50.079Z,81.36
2022-11-29T10:56:57.838Z,81.12
2022-11-29T11:02:23.030Z,80.74
2022-11-29T11:07:33.168Z,81.00
2022-11-29T11:12:37.129Z,80.76
2022-11-29T11:17:42.294Z,80.85
2022-11-29T11:22:59.805Z,81.01
2022-11-29T11:28:20.959Z,81.11
2022-11-29T11:33:37.344Z,81.04
2022-11-29T11:38:55.802Z,80.86
2022-11-29T11:44:00.121Z,80.62
2022-11-29T11:49:11.351Z,80.81
2022-11-29T11:54:15.586Z,80.84
2022-11-29T11:59:21.407Z,81.05
2022-11-29T12:04:37.243Z,80.95
2022-11-29T12:09:48.014Z,81.48
2022-11-29T12:14:58.227Z,81.17
2022-11-29T12:20:22.626Z,81.23
2022-11-29T12:25:32.602Z,80.97
2022-11-29T12:30:37.114Z,80.81
2022-11-29T12:36:13.211Z,80.92
2022-11-29T12:41:52.443Z,81.42
2022-11-29T12:47:36.113Z,81.22
2022-11-29T12:52:51.385Z,81.12
2022-11-29T12:58:00.353Z,81.54
2022-11-29T13:03:22.765Z,81.42
2022-11-29T13:08:45.894Z,81.57
2022-11-29T13:14:20.190Z,81.64
2022-11-29T13:19:34.916Z,81.48
2022-11-29T13:24:43.405Z,81.44
2022-11-29T13:29:48.310Z,81.61
2022-11-29T13:34:53.124Z,81.82
2022-11-29T13:40:11.244Z,82.17
2022-11-29T13:45:26.489Z,82.16
2022-11-29T13:50:40.435Z,82.14
2022-11-29T13:56:02.611Z,82.34
2022-11-29T14:01:12.186Z,82.48
2022-11-29T14:06:21.360Z,82.68
2022-11-29T14:11:51.106Z,82.49
2022-11-29T14:16:59.653Z,82.45
2022-11-29T14:22:03.064Z,82.59
2022-11-29T14:27:06.928Z,82.77
2022-11-29T14:32:21.195Z,82.89
2022-11-29T14:37:33.626Z,83.11
2022-11-29T14:42:46.822Z,83.43
2022-11-29T14:47:50.735Z,83.30
2022-11-29T14:52:54.245Z,83.51
2022-11-29T14:58:04.071Z,83.12
2022-11-29T15:03:37.876Z,82.95
2022-11-29T15:08:52.000Z,82.82
2022-11-29T15:14:09.812Z,83.39
2022-11-29T15:19:31.482Z,83.32
2022-11-29T15:25:02.256Z,83.23
2022-11-29T15:30:23.458Z,83.43
2022-11-29T15:35:27.038Z,83.56
2022-11-29T15:40:35.630Z,83.57
2022-11-29T15:45:39.989Z,83.60
2022-11-29T15:51:00.393Z,83.84
2022-11-29T15:56:12.213Z,83.92
2022-11-29T16:01:20.670Z,83.69
2022-11-29T16:06:40.882Z,83.71
2022-11-29T16:11:44.624Z,83.77
2022-11-29T16:16:50.172Z,83.60
2022-11-29T16:22:26.170Z,83.27
2022-11-29T16:27:33.664Z,83.53
2022-11-29T16:32:42.530Z,83.51
2022-11-29T16:37:46.667Z,83.41
2022-11-29T16:43:47.508Z,83.49
2022-11-29T16:48:57.471Z,83.36
2022-11-29T16:54:21.215Z,83.38
2022-11-29T16:59:28.350Z,83.49
2022-11-29T17:04:31.437Z,83.35
2022-11-29T17:09:34.776Z,83.02
2022-11-29T17:14:40.023Z,83.27
2022-11-29T17:19:43.708Z,83.30
2022-11-29T17:24:48.574Z,83.08
2022-11-29T17:29:54.007Z,82.74
2022-11-29T17:34:56.892Z,82.72
2022-11-29T17:40:00.972Z,82.94
2022-11-29T17:45:04.388Z,82.65
2022-11-29T17:50:07.707Z,82.70
2022-11-29T17:55:10.677Z,82.77
2022-11-29T18:00:15.542Z,82.67
2022-11-29T18:05:18.641Z,82.33
2022-11-29T18:10:21.447Z,82.09
2022-11-29T18:15:27.212Z,82.13
2022-11-29T18:20:29.983Z,81.92
2022-11-29T18:25:40.476Z,82.20
2022-11-29T18:30:44.146Z,82.29
2022-11-29T18:35:48.884Z,82.33
2022-11-29T18:40:51.720Z,82.13
2022-11-29T18:45:54.516Z,82.20
2022-11-29T18:51:05.928Z,82.19
2022-11-29T18:56:17.032Z,81.74
2022-11-29T19:01:21.298Z,81.75
2022-11-29T19:06:27.692Z,82.00
2022-11-29T19:11:34.783Z,81.99
2022-11-29T19:16:39.409Z,81.93
2022-11-29T19:21:42.350Z,82.17
2022-11-29T19:26:47.667Z,81.92
2022-11-29T19:31:50.615Z,81.71
2022-11-29T19:36:53.415Z,81.92
2022-11-29T19:41:56.191Z,81.85
2022-11-29T19:46:59.327Z,81.93
2022-11-29T19:52:07.315Z,81.78
2022-11-29T19:57:10.110Z,81.63
2022-11-29T20:02:13.221Z,81.68
2022-11-29T20:07:16.342Z,81.85
2022-11-29T20:12:19.165Z,81.90
2022-11-29T20:17:22.582Z,81.74
2022-11-29T20:22:25.366Z,81.92
2022-11-29T20:27:28.193Z,81.79
2022-11-29T20:32:31.258Z,81.63
2022-11-29T20:37:45.158Z,81.52
2022-11-29T20:42:54.219Z,81.56
2022-11-29T20:48:36.112Z,81.43
2022-11-29T20:53:42.951Z,81.40
2022-11-29T20:58:45.784Z,81.32
2022-11-29T21:03:48.778Z,81.33
2022-11-29T21:08:51.702Z,81.31
2022-11-29T21:13:55.058Z,81.48
2022-11-29T21:19:00.763Z,81.30
2022-11-29T21:24:19.675Z,81.54
2022-11-29T21:29:23.517Z,81.23
2022-11-29T21:34:26.322Z,81.23
2022-11-29T21:39:34.126Z,81.58
2022-11-29T21:44:36.894Z,81.87
2022-11-29T21:49:40.006Z,81.88
2022-11-29T21:54:42.804Z,81.94
2022-11-29T21:59:45.818Z,82.15
2022-11-29T22:04:48.956Z,82.20
2022-11-29T22:09:52.104Z,82.13
2022-11-29T22:14:54.860Z,81.95
2022-11-29T22:19:57.605Z,81.76
2022-11-29T22:25:00.360Z,82.12
2022-11-29T22:30:03.496Z,82.07
2022-11-29T22:35:06.500Z,82.10
2022-11-29T22:40:09.509Z,81.98
2022-11-29T22:45:12.368Z,81.93
2022-11-29T22:50:15.231Z,82.03
2022-11-29T22:55:18.012Z,81.94
2022-11-29T23:00:21.344Z,82.05
2022-11-29T23:05:27.259Z,82.09
2022-11-29T23:10:33.602Z,82.39
2022-11-29T23:15:36.361Z,82.33
2022-11-29T23:20:39.884Z,82.71
2022-11-29T23:25:49.623Z,82.34
2022-11-29T23:30:54.346Z,82.41
2022-11-29T23:36:03.178Z,82.54
2022-11-29T23:41:07.458Z,82.70
2022-11-29T23:46:14.424Z,82.88
2022-11-29T23:51:17.954Z,82.81
2022-11-29T23:56:21.900Z,82.77
